createdAt,value
2018-09-04T00:00:44.832Z,100.00
2018-09-04T00:03:13.389Z,100.00
2018-09-04T00:05:41.992Z,100.00
2018-09-04T00:08:10.569Z,100.00
2018-09-04T00:10:39.140Z,100.00
2018-09-04T00:13:07.708Z,100.00
2018-09-04T00:15:36.273Z,100.00
2018-09-04T00:18:04.825Z,100.00
2018-09-04T00:20:33.413Z,100.00
2018-09-04T00:23:02.028Z,100.00
2018-09-04T00:25:30.612Z,98.54
2018-09-04T00:27:59.152Z,99.04
2018-09-04T00:30:27.747Z,99.45
2018-09-04T00:32:56.281Z,100.00
2018-09-04T00:35:25.117Z,100.00
2018-09-04T00:37:54.705Z,100.00
2018-09-04T00:40:23.253Z,100.00
2018-09-04T00:42:51.836Z,100.00
2018-09-04T00:45:20.381Z,100.00
2018-09-04T00:47:48.957Z,100.00
2018-09-04T00:50:17.518Z,100.00
2018-09-04T00:52:46.104Z,100.00
2018-09-04T00:55:14.660Z,100.00
2018-09-04T00:57:43.267Z,100.00
2018-09-04T01:00:11.844Z,100.00
2018-09-04T01:02:40.776Z,100.00
2018-09-04T01:05:09.432Z,100.00
2018-09-04T01:07:38.021Z,100.00
2018-09-04T01:10:06.632Z,100.00
2018-09-04T01:12:35.233Z,100.00
2018-09-04T01:15:03.808Z,100.00
2018-09-04T01:17:32.673Z,100.00
2018-09-04T01:20:01.232Z,100.00
2018-09-04T01:22:30.073Z,100.00
2018-09-04T01:24:58.624Z,100.00
2018-09-04T01:27:27.193Z,100.00
2018-09-04T01:29:56.065Z,100.00
2018-09-04T01:32:24.873Z,100.00
2018-09-04T01:34:53.401Z,100.00
2018-09-04T01:37:21.952Z,100.00
2018-09-04T01:39:50.464Z,100.00
2018-09-04T01:42:19.033Z,100.00
2018-09-04T01:44:47.549Z,100.00
2018-09-04T01:47:16.109Z,100.00
2018-09-04T01:49:44.613Z,100.00
2018-09-04T01:52:13.172Z,100.00
2018-09-04T01:54:41.679Z,100.00
2018-09-04T01:57:10.237Z,100.00
2018-09-04T01:59:38.820Z,100.00
2018-09-04T02:02:07.416Z,100.00
2018-09-04T02:04:36.040Z,100.00
2018-09-04T02:07:04.701Z,100.00
2018-09-04T02:09:33.260Z,100.00
2018-09-04T02:12:01.849Z,100.00
2018-09-04T02:14:30.406Z,100.00
2018-09-04T02:16:59.004Z,100.00
2018-09-04T02:19:27.573Z,100.00
2018-09-04T02:21:56.169Z,100.00
2018-09-04T02:24:25.033Z,100.00
2018-09-04T02:26:53.632Z,100.00
2018-09-04T02:29:22.189Z,100.00
2018-09-04T02:31:50.738Z,100.00
2018-09-04T02:34:19.345Z,100.00
2018-09-04T02:36:47.914Z,100.00
2018-09-04T02:39:16.532Z,100.00
2018-09-04T02:41:45.090Z,99.49
2018-09-04T02:44:13.736Z,100.00
2018-09-04T02:46:42.296Z,100.00
2018-09-04T02:49:10.891Z,100.00
2018-09-04T02:51:39.524Z,100.00
2018-09-04T02:54:08.178Z,100.00
2018-09-04T02:56:36.840Z,100.00
2018-09-04T02:59:09.140Z,100.00
2018-09-04T03:01:37.697Z,100.00
2018-09-04T03:04:06.289Z,100.00
2018-09-04T03:06:41.584Z,100.00
2018-09-04T03:09:10.190Z,100.00
2018-09-04T03:11:38.757Z,100.00
2018-09-04T03:14:07.348Z,100.00
2018-09-04T03:16:35.869Z,100.00
2018-09-04T03:19:04.491Z,100.00
2018-09-04T03:21:33.005Z,100.00
2018-09-04T03:24:01.567Z,100.00
2018-09-04T03:26:30.097Z,100.00
2018-09-04T03:28:58.691Z,100.00
2018-09-04T03:31:27.213Z,100.00
2018-09-04T03:33:55.784Z,100.00
2018-09-04T03:36:25.315Z,100.00
2018-09-04T03:38:53.869Z,100.00
2018-09-04T03:41:22.384Z,100.00
2018-09-04T03:43:50.960Z,100.00
2018-09-04T03:46:19.528Z,100.00
2018-09-04T03:48:48.101Z,100.00
2018-09-04T03:51:16.684Z,100.00
2018-09-04T03:53:45.896Z,100.00
2018-09-04T03:56:14.432Z,100.00
2018-09-04T03:58:43.033Z,100.00
2018-09-04T04:01:11.616Z,100.00
2018-09-04T04:03:40.217Z,100.00
2018-09-04T04:06:08.773Z,100.00
2018-09-04T04:08:37.353Z,100.00
2018-09-04T04:11:05.929Z,100.00
2018-09-04T04:13:34.543Z,100.00
2018-09-04T04:16:03.092Z,100.00
2018-09-04T04:18:31.713Z,100.00
2018-09-04T04:21:01.257Z,100.00
2018-09-04T04:23:30.665Z,100.00
2018-09-04T04:26:00.672Z,100.00
2018-09-04T04:28:29.228Z,100.00
2018-09-04T04:30:57.820Z,100.00
2018-09-04T04:33:26.696Z,100.00
2018-09-04T04:35:55.557Z,100.00
2018-09-04T04:38:24.161Z,100.00
2018-09-04T04:40:52.748Z,100.00
2018-09-04T04:43:21.353Z,100.00
2018-09-04T04:45:49.940Z,100.00
2018-09-04T04:48:18.587Z,100.00
2018-09-04T04:50:48.033Z,100.00
2018-09-04T04:53:16.589Z,100.00
2018-09-04T04:55:45.168Z,100.00
2018-09-04T04:58:13.753Z,100.00
2018-09-04T05:00:42.345Z,100.00
2018-09-04T05:03:10.873Z,100.00
2018-09-04T05:05:39.460Z,100.00
2018-09-04T05:08:07.972Z,100.00
2018-09-04T05:10:36.553Z,100.00
2018-09-04T05:13:05.205Z,100.00
2018-09-04T05:15:33.813Z,100.00
2018-09-04T05:18:02.372Z,100.00
2018-09-04T05:20:31.028Z,100.00
2018-09-04T05:22:59.846Z,100.00
2018-09-04T05:25:28.512Z,100.00
2018-09-04T05:27:58.558Z,100.00
2018-09-04T05:30:27.190Z,100.00
2018-09-04T05:33:01.372Z,100.00
2018-09-04T05:35:34.329Z,100.00
2018-09-04T05:38:02.897Z,100.00
2018-09-04T05:40:31.482Z,100.00
2018-09-04T05:43:02.285Z,100.00
2018-09-04T05:45:32.049Z,100.00
2018-09-04T05:48:16.541Z,100.00
2018-09-04T05:50:45.180Z,100.00
2018-09-04T05:53:15.092Z,100.00
2018-09-04T05:55:46.847Z,100.00
2018-09-04T05:58:21.739Z,100.00
2018-09-04T06:00:54.660Z,100.00
2018-09-04T06:03:23.177Z,100.00
2018-09-04T06:05:51.771Z,100.00
2018-09-04T06:08:21.230Z,100.00
2018-09-04T06:10:49.833Z,100.00
2018-09-04T06:13:18.476Z,100.00
2018-09-04T06:15:47.309Z,100.00
2018-09-04T06:18:15.833Z,100.00
2018-09-04T06:20:44.402Z,100.00
2018-09-04T06:23:12.977Z,100.00
2018-09-04T06:25:41.580Z,100.00
2018-09-04T06:28:10.096Z,100.00
2018-09-04T06:30:38.728Z,100.00
2018-09-04T06:33:08.474Z,100.00
2018-09-04T06:35:37.110Z,100.00
2018-09-04T06:38:06.189Z,100.00
2018-09-04T06:40:34.744Z,100.00
2018-09-04T06:43:08.267Z,100.00
2018-09-04T06:45:37.073Z,100.00
2018-09-04T06:48:05.681Z,100.00
2018-09-04T06:50:34.809Z,100.00
2018-09-04T06:53:03.382Z,100.00
2018-09-04T06:55:37.030Z,100.00
2018-09-04T06:58:09.632Z,100.00
2018-09-04T07:00:38.249Z,100.00
2018-09-04T07:03:07.086Z,100.00
2018-09-04T07:05:35.701Z,100.00
2018-09-04T07:08:04.464Z,100.00
2018-09-04T07:10:33.004Z,100.00
2018-09-04T07:13:01.580Z,100.00
2018-09-04T07:15:30.117Z,100.00
2018-09-04T07:18:01.274Z,100.00
2018-09-04T07:20:30.217Z,99.44
2018-09-04T07:22:58.832Z,99.73
2018-09-04T07:25:27.484Z,99.75
2018-09-04T07:27:56.418Z,98.96
2018-09-04T07:30:25.313Z,98.89
2018-09-04T07:32:54.025Z,99.07
2018-09-04T07:35:22.544Z,98.20
2018-09-04T07:37:51.567Z,97.53
2018-09-04T07:40:20.705Z,97.08
2018-09-04T07:42:49.383Z,96.48
2018-09-04T07:45:18.501Z,96.79
2018-09-04T07:47:47.064Z,96.40
2018-09-04T07:50:19.364Z,95.50
2018-09-04T07:52:48.101Z,95.01
2018-09-04T07:55:18.788Z,94.48
2018-09-04T07:57:47.783Z,95.68
2018-09-04T08:00:16.549Z,94.95
2018-09-04T08:02:48.419Z,94.98
2018-09-04T08:05:17.127Z,93.82
2018-09-04T08:07:45.772Z,93.49
2018-09-04T08:10:14.330Z,92.78
2018-09-04T08:12:48.622Z,93.38
2018-09-04T08:15:19.446Z,93.05
2018-09-04T08:17:48.782Z,92.79
2018-09-04T08:20:17.412Z,90.64
2018-09-04T08:22:45.911Z,89.93
2018-09-04T08:25:14.432Z,88.71
2018-09-04T08:27:43.156Z,88.51
2018-09-04T08:30:12.959Z,88.61
2018-09-04T08:32:41.556Z,88.45
2018-09-04T08:35:10.066Z,88.31
2018-09-04T08:37:38.717Z,87.38
2018-09-04T08:40:10.230Z,87.06
2018-09-04T08:42:38.713Z,87.54
2018-09-04T08:45:07.287Z,86.99
2018-09-04T08:47:35.933Z,86.06
2018-09-04T08:50:04.603Z,85.68
2018-09-04T08:52:33.174Z,85.63
2018-09-04T08:55:01.835Z,85.99
2018-09-04T08:57:30.440Z,86.08
2018-09-04T08:59:59.860Z,85.58
2018-09-04T09:02:32.633Z,85.76
2018-09-04T09:05:01.661Z,84.68
2018-09-04T09:07:39.668Z,83.68
2018-09-04T09:10:08.706Z,82.97
2018-09-04T09:12:37.670Z,82.48
2018-09-04T09:15:16.224Z,80.59
2018-09-04T09:17:52.339Z,81.57
2018-09-04T09:20:30.869Z,79.11
2018-09-04T09:23:05.311Z,78.68
2018-09-04T09:25:38.957Z,78.09
2018-09-04T09:28:13.917Z,76.71
2018-09-04T09:30:48.249Z,76.59
2018-09-04T09:33:24.279Z,75.22
2018-09-04T09:36:00.574Z,73.35
2018-09-04T09:38:30.040Z,72.51
2018-09-04T09:41:01.857Z,70.71
2018-09-04T09:43:33.337Z,72.10
2018-09-04T09:46:03.285Z,70.91
2018-09-04T09:48:39.061Z,71.09
2018-09-04T09:51:07.668Z,70.94
2018-09-04T09:53:41.402Z,70.47
2018-09-04T09:56:13.963Z,70.85
2018-09-04T09:58:46.264Z,72.49
2018-09-04T10:01:25.276Z,71.81
2018-09-04T10:04:02.607Z,71.55
2018-09-04T10:06:35.823Z,71.35
2018-09-04T10:09:10.539Z,71.56
2018-09-04T10:11:41.126Z,71.50
2018-09-04T10:14:13.357Z,71.22
2018-09-04T10:16:42.068Z,69.29
2018-09-04T10:19:16.627Z,68.98
2018-09-04T10:21:51.170Z,68.50
2018-09-04T10:24:21.745Z,68.92
2018-09-04T10:26:51.557Z,68.37
2018-09-04T10:29:20.133Z,67.75
2018-09-04T10:34:16.924Z,68.50
2018-09-04T10:36:46.393Z,68.08
2018-09-04T10:39:20.265Z,66.92
2018-09-04T10:41:54.166Z,68.42
2018-09-04T10:44:31.261Z,71.37
2018-09-04T10:47:03.280Z,71.78
2018-09-04T10:49:33.325Z,71.17
2018-09-04T10:52:02.464Z,71.03
2018-09-04T10:54:35.892Z,69.82
2018-09-04T10:57:05.859Z,69.54
2018-09-04T10:59:34.420Z,69.85
2018-09-04T11:02:03.028Z,68.94
2018-09-04T11:04:32.549Z,68.64
2018-09-04T11:07:01.236Z,68.79
2018-09-04T11:09:30.141Z,68.18
2018-09-04T11:11:58.836Z,68.26
2018-09-04T11:14:27.549Z,68.53
2018-09-04T11:16:56.122Z,67.61
2018-09-04T11:21:52.306Z,66.69
2018-09-04T11:24:23.676Z,65.78
2018-09-04T11:26:52.898Z,66.36
2018-09-04T11:29:23.831Z,67.02
2018-09-04T11:31:56.547Z,68.97
2018-09-04T11:34:33.189Z,68.85
2018-09-04T11:37:02.007Z,66.69
2018-09-04T11:39:30.745Z,65.87
2018-09-04T11:41:59.448Z,67.03
2018-09-04T11:44:28.201Z,66.08
2018-09-04T11:46:57.043Z,65.28
2018-09-04T11:49:25.552Z,65.51
2018-09-04T11:51:58.736Z,63.63
2018-09-04T11:54:27.535Z,64.72
2018-09-04T11:56:56.141Z,64.55
2018-09-04T11:59:25.172Z,64.06
2018-09-04T12:01:56.932Z,63.46
2018-09-04T12:04:25.772Z,59.99
2018-09-04T12:07:00.546Z,61.44
2018-09-04T12:09:36.204Z,59.35
2018-09-04T12:12:11.718Z,57.44
2018-09-04T12:14:50.933Z,57.55
2018-09-04T12:17:20.045Z,59.66
2018-09-04T12:19:56.004Z,58.56
2018-09-04T12:22:24.736Z,58.19
2018-09-04T12:24:53.548Z,57.33
2018-09-04T12:27:22.559Z,57.03
2018-09-04T12:29:51.261Z,58.05
2018-09-04T12:32:19.996Z,57.87
2018-09-04T12:34:48.857Z,59.87
2018-09-04T12:37:17.633Z,58.82
2018-09-04T12:39:51.676Z,58.64
2018-09-04T12:42:20.447Z,58.09
2018-09-04T12:44:50.114Z,55.48
2018-09-04T12:47:19.072Z,57.11
2018-09-04T12:49:54.309Z,55.12
2018-09-04T12:52:23.304Z,55.31
2018-09-04T12:54:58.083Z,58.03
2018-09-04T12:57:27.077Z,57.99
2018-09-04T12:59:55.891Z,57.58
2018-09-04T13:02:24.986Z,59.04
2018-09-04T13:04:53.696Z,57.52
2018-09-04T13:07:22.420Z,57.62
2018-09-04T13:09:51.076Z,57.13
2018-09-04T13:12:19.945Z,56.04
2018-09-04T13:14:53.386Z,56.10
2018-09-04T13:17:26.851Z,55.50
2018-09-04T13:19:56.184Z,56.10
2018-09-04T13:22:27.553Z,56.84
2018-09-04T13:24:58.132Z,58.47
2018-09-04T13:27:26.779Z,58.00
2018-09-04T13:29:55.332Z,57.76
2018-09-04T13:32:26.904Z,57.92
2018-09-04T13:35:02.520Z,57.50
2018-09-04T13:37:31.612Z,59.65
2018-09-04T13:40:03.049Z,57.95
2018-09-04T13:42:32.850Z,59.16
2018-09-04T13:45:03.412Z,59.47
2018-09-04T13:47:34.201Z,60.44
2018-09-04T13:50:02.724Z,61.66
2018-09-04T13:52:32.280Z,61.70
2018-09-04T13:55:00.831Z,63.14
2018-09-04T13:57:30.005Z,63.42
2018-09-04T13:59:59.674Z,62.27
2018-09-04T14:02:28.356Z,62.07
2018-09-04T14:04:57.028Z,61.48
2018-09-04T14:07:26.804Z,61.00
2018-09-04T14:09:56.500Z,61.93
2018-09-04T14:12:35.903Z,60.87
2018-09-04T14:15:10.021Z,61.66
2018-09-04T14:17:43.365Z,62.87
2018-09-04T14:20:14.918Z,61.42
2018-09-04T14:22:49.513Z,61.42
2018-09-04T14:25:24.167Z,61.85
2018-09-04T14:28:02.016Z,62.10
2018-09-04T14:30:36.321Z,60.39
2018-09-04T14:33:11.188Z,59.94
2018-09-04T14:35:47.765Z,60.60
2018-09-04T14:38:22.472Z,60.31
2018-09-04T14:40:58.149Z,59.55
2018-09-04T14:43:34.146Z,59.73
2018-09-04T14:46:08.322Z,58.77
2018-09-04T14:48:44.075Z,59.07
2018-09-04T14:51:18.047Z,58.91
2018-09-04T14:53:54.190Z,58.79
2018-09-04T14:56:27.802Z,58.58
2018-09-04T14:59:03.083Z,58.34
2018-09-04T15:01:38.434Z,58.15
2018-09-04T15:04:12.393Z,57.41
2018-09-04T15:06:47.191Z,58.08
2018-09-04T15:09:20.001Z,56.67
2018-09-04T15:11:55.319Z,56.34
2018-09-04T15:14:30.337Z,55.47
2018-09-04T15:17:05.141Z,55.67
2018-09-04T15:19:41.329Z,55.01
2018-09-04T15:22:15.438Z,55.92
2018-09-04T15:24:50.351Z,56.93
2018-09-04T15:27:30.144Z,56.41
2018-09-04T15:30:09.562Z,55.19
2018-09-04T15:32:48.633Z,55.35
2018-09-04T15:35:24.405Z,55.32
2018-09-04T15:37:59.298Z,55.27
2018-09-04T15:40:35.400Z,55.41
2018-09-04T15:43:11.437Z,56.73
2018-09-04T15:45:46.572Z,56.89
2018-09-04T15:48:23.711Z,56.59
2018-09-04T15:50:58.904Z,56.06
2018-09-04T15:53:34.174Z,55.64
2018-09-04T15:56:09.067Z,54.70
2018-09-04T15:58:41.186Z,54.65
2018-09-04T16:01:14.077Z,54.85
2018-09-04T16:03:47.676Z,55.07
2018-09-04T16:06:18.729Z,55.12
2018-09-04T16:08:54.085Z,55.49
2018-09-04T16:11:29.447Z,55.17
2018-09-04T16:14:07.107Z,55.08
2018-09-04T16:16:42.633Z,54.76
2018-09-04T16:19:17.156Z,55.71
2018-09-04T16:21:55.804Z,55.47
2018-09-04T16:24:34.108Z,54.52
2018-09-04T16:27:10.934Z,55.87
2018-09-04T16:29:47.350Z,54.46
2018-09-04T16:32:21.812Z,54.15
2018-09-04T16:34:57.812Z,53.99
2018-09-04T16:37:34.070Z,54.35
2018-09-04T16:40:13.460Z,54.22
2018-09-04T16:42:49.454Z,53.39
2018-09-04T16:45:24.029Z,53.90
2018-09-04T16:47:59.265Z,54.07
2018-09-04T16:50:35.305Z,53.88
2018-09-04T16:53:11.016Z,55.45
2018-09-04T16:55:46.054Z,54.48
2018-09-04T16:58:24.311Z,54.52
2018-09-04T17:01:04.807Z,55.22
2018-09-04T17:03:39.354Z,55.67
2018-09-04T17:06:15.264Z,55.86
2018-09-04T17:08:52.762Z,55.90
2018-09-04T17:11:31.489Z,56.76
2018-09-04T17:14:13.693Z,56.99
2018-09-04T17:16:48.025Z,57.12
2018-09-04T17:19:16.866Z,57.35
2018-09-04T17:21:45.422Z,58.09
2018-09-04T17:24:14.001Z,58.06
2018-09-04T17:26:42.567Z,57.22
2018-09-04T17:29:14.257Z,58.00
2018-09-04T17:31:49.309Z,57.64
2018-09-04T17:34:24.238Z,57.85
2018-09-04T17:36:59.789Z,59.02
2018-09-04T17:39:36.367Z,59.86
2018-09-04T17:42:10.465Z,61.25
2018-09-04T17:44:44.088Z,61.08
2018-09-04T17:47:19.488Z,62.27
2018-09-04T17:49:53.243Z,62.88
2018-09-04T17:52:27.694Z,63.23
2018-09-04T17:55:02.449Z,63.29
2018-09-04T17:57:38.169Z,63.76
2018-09-04T18:00:12.911Z,63.21
2018-09-04T18:02:45.503Z,63.38
2018-09-04T18:05:23.036Z,63.71
2018-09-04T18:07:58.649Z,63.69
2018-09-04T18:10:34.154Z,64.11
2018-09-04T18:13:11.205Z,65.01
2018-09-04T18:15:44.505Z,66.56
2018-09-04T18:18:19.859Z,67.04
2018-09-04T18:20:55.979Z,67.18
2018-09-04T18:23:29.811Z,67.43
2018-09-04T18:26:04.211Z,68.78
2018-09-04T18:28:37.985Z,68.58
2018-09-04T18:31:13.411Z,69.12
2018-09-04T18:33:48.014Z,69.68
2018-09-04T18:36:22.836Z,69.22
2018-09-04T18:38:57.085Z,70.95
2018-09-04T18:41:32.056Z,73.43
2018-09-04T18:48:10.437Z,78.38
2018-09-04T18:50:44.639Z,80.69
2018-09-04T18:53:18.882Z,81.36
2018-09-04T18:55:53.475Z,81.81
2018-09-04T18:58:27.013Z,82.81
2018-09-04T19:01:01.756Z,81.09
2018-09-04T19:03:37.509Z,84.15
2018-09-04T19:06:11.865Z,84.11
2018-09-04T19:08:46.212Z,84.70
2018-09-04T19:11:23.002Z,82.26
2018-09-04T19:13:57.517Z,83.11
2018-09-04T19:16:32.424Z,83.47
2018-09-04T19:19:07.786Z,82.59
2018-09-04T19:21:42.555Z,81.31
2018-09-04T19:24:15.926Z,81.99
2018-09-04T19:26:50.545Z,82.95
2018-09-04T19:29:25.986Z,83.82
2018-09-04T19:32:05.455Z,83.60
2018-09-04T19:34:40.436Z,83.47
2018-09-04T19:37:16.780Z,84.25
2018-09-04T19:39:54.103Z,83.62
2018-09-04T19:42:37.302Z,84.02
2018-09-04T19:45:16.933Z,83.97
2018-09-04T19:47:52.111Z,84.02
2018-09-04T19:50:27.658Z,81.17
2018-09-04T19:53:02.564Z,80.66
2018-09-04T19:55:40.418Z,79.82
2018-09-04T19:58:16.889Z,79.98
2018-09-04T20:00:53.235Z,81.59
2018-09-04T20:03:29.239Z,82.17
2018-09-04T20:06:03.906Z,81.78
2018-09-04T20:08:38.831Z,84.48
2018-09-04T20:11:12.687Z,83.89
2018-09-04T20:13:48.572Z,84.91
2018-09-04T20:16:24.036Z,85.06
2018-09-04T20:18:59.018Z,84.37
2018-09-04T20:21:33.896Z,84.54
2018-09-04T20:24:08.744Z,85.52
2018-09-04T20:26:42.429Z,85.61
2018-09-04T20:29:16.741Z,85.90
2018-09-04T20:31:53.241Z,85.42
2018-09-04T20:34:27.859Z,84.68
2018-09-04T20:37:02.755Z,85.32
2018-09-04T20:39:36.719Z,85.00
2018-09-04T20:42:13.118Z,85.43
2018-09-04T20:44:48.430Z,86.39
2018-09-04T20:47:23.537Z,86.45
2018-09-04T20:49:58.431Z,87.95
2018-09-04T20:52:32.618Z,88.38
2018-09-04T20:55:07.163Z,87.69
2018-09-04T20:57:40.994Z,87.29
2018-09-04T21:00:27.684Z,87.50
2018-09-04T21:03:10.330Z,87.92
2018-09-04T21:05:53.328Z,87.83
2018-09-04T21:08:36.146Z,88.42
2018-09-04T21:11:12.403Z,89.40
2018-09-04T21:13:48.167Z,90.09
2018-09-04T21:16:24.197Z,90.40
2018-09-04T21:18:59.153Z,90.91
2018-09-04T21:21:34.385Z,90.45
2018-09-04T21:24:09.748Z,90.55
2018-09-04T21:26:44.080Z,91.30
2018-09-04T21:29:19.387Z,92.19
2018-09-04T21:31:54.243Z,91.33
2018-09-04T21:34:31.266Z,90.54
2018-09-04T21:37:05.605Z,90.99
2018-09-04T21:39:43.769Z,91.80
2018-09-04T21:42:18.397Z,92.24
2018-09-04T21:44:54.752Z,92.84
2018-09-04T21:47:29.988Z,92.71
2018-09-04T21:50:05.542Z,92.01
2018-09-04T21:52:40.911Z,91.43
2018-09-04T21:55:16.694Z,90.55
2018-09-04T21:57:51.209Z,91.16
2018-09-04T22:00:31.373Z,91.31
2018-09-04T22:03:07.134Z,90.88
2018-09-04T22:05:42.313Z,92.48
2018-09-04T22:08:17.100Z,92.43
2018-09-04T22:10:52.474Z,93.10
2018-09-04T22:13:27.715Z,94.42
2018-09-04T22:16:03.565Z,95.59
2018-09-04T22:18:40.837Z,94.80
2018-09-04T22:21:17.491Z,95.60
2018-09-04T22:23:53.827Z,95.31
2018-09-04T22:26:29.486Z,92.82
2018-09-04T22:29:05.703Z,92.76
2018-09-04T22:31:40.753Z,93.95
2018-09-04T22:34:16.535Z,93.83
2018-09-04T22:36:51.974Z,94.06
2018-09-04T22:39:30.212Z,94.98
2018-09-04T22:42:05.794Z,95.25
2018-09-04T22:44:40.750Z,95.55
2018-09-04T22:47:16.264Z,96.38
2018-09-04T22:49:56.508Z,97.41
2018-09-04T22:52:34.875Z,96.64
2018-09-04T22:55:11.561Z,98.50
2018-09-04T22:57:46.906Z,99.47
2018-09-04T23:00:21.251Z,97.93
2018-09-04T23:02:56.831Z,96.83
2018-09-04T23:05:31.948Z,97.84
2018-09-04T23:08:06.928Z,99.25
2018-09-04T23:10:41.956Z,99.16
2018-09-04T23:13:18.588Z,98.64
2018-09-04T23:15:54.085Z,97.52
2018-09-04T23:18:30.209Z,97.68
2018-09-04T23:21:05.231Z,98.83
2018-09-04T23:23:42.150Z,98.84
2018-09-04T23:26:17.740Z,96.84
2018-09-04T23:28:53.193Z,95.76
2018-09-04T23:31:27.931Z,97.92
2018-09-04T23:34:06.749Z,97.71
2018-09-04T23:36:40.330Z,97.76
2018-09-04T23:39:16.208Z,98.27
2018-09-04T23:41:51.543Z,98.47
2018-09-04T23:44:27.031Z,95.63
2018-09-04T23:47:02.685Z,95.16
2018-09-04T23:49:39.130Z,97.22
2018-09-04T23:52:14.812Z,100.00
2018-09-04T23:54:51.806Z,100.00
2018-09-04T23:57:28.086Z,100.00
